Elmer City, Washington
Current Conditions -  °F | °C
As of 5:20 AM on Friday 31 Oct 2014 (Local Time) from KOMK Reporting Station
Light Rain Light Rain  
Wind Chill:   Ceiling: 800
Heat Index:   Visibility: 4mi
Dew Point:   Wind: 3mph
Humidity: 96%   Direction: 190°S
Pressure: 29.73"   Gusts: NA
Location:  48°N, 118.95°W
Report Text: KOMK 311220Z AUTO 19003KT 4SM -RA BR OVC008 09/08 A2973 RMK AO2 CIG 005V010 P0001 T00890083
Loading
Personal Weather Stations






























Interactive Weather Map
Tropical Storm Tracking
New forecast layout! Learn more

10-Day Weather Forecast

Advertisements
Track Severe Weather on mobile